Morgantown, West Virginia
Current Conditions -  °F | °C
As of 11:43 PM on Thursday 18 Dec 2014 (Local Time) from KMGW Reporting Station
Overcast Overcast  
Wind Chill: 27°   Ceiling: 1400
Heat Index: 27°   Visibility: 10mi
Dew Point: 20°   Wind: 3mph
Humidity: 75%   Direction: 260°W
Pressure: 30.17"   Gusts: NA
Location:  39.63°N, 79.96°W
Report Text: KMGW 190443Z AUTO 26003KT 10SM OVC014 M03/M07 A3017 RMK AO2 SNE0358 P0000 T10281067 TSNO
Loading
Personal Weather Stations






























Interactive Weather Map New forecast layout! Learn more

10-Day Weather Forecast

Advertisements
Track Severe Weather on mobile